sensor_id;sensor_type;location;lat;lon;timestamp;temperature;humidity
38265;DHT22;24062;47.480;8.768;2023-07-22T00:00:02;27.90;56.70
38265;DHT22;24062;47.480;8.768;2023-07-22T00:02:31;27.90;56.80
38265;DHT22;24062;47.480;8.768;2023-07-22T00:04:58;27.90;56.80
38265;DHT22;24062;47.480;8.768;2023-07-22T00:07:26;27.90;56.80
38265;DHT22;24062;47.480;8.768;2023-07-22T00:09:53;27.80;56.70
38265;DHT22;24062;47.480;8.768;2023-07-22T00:12:20;27.80;56.80
38265;DHT22;24062;47.480;8.768;2023-07-22T00:14:51;27.80;56.80
38265;DHT22;24062;47.480;8.768;2023-07-22T00:17:18;27.80;56.80
38265;DHT22;24062;47.480;8.768;2023-07-22T00:19:46;27.90;56.90
38265;DHT22;24062;47.480;8.768;2023-07-22T00:22:13;27.80;56.80
38265;DHT22;24062;47.480;8.768;2023-07-22T00:24:43;27.80;56.80
38265;DHT22;24062;47.480;8.768;2023-07-22T00:27:10;27.80;56.80
38265;DHT22;24062;47.480;8.768;2023-07-22T00:29:37;27.80;56.90
38265;DHT22;24062;47.480;8.768;2023-07-22T00:32:07;27.70;56.80
38265;DHT22;24062;47.480;8.768;2023-07-22T00:34:35;27.70;56.80
38265;DHT22;24062;47.480;8.768;2023-07-22T00:37:02;27.70;56.80
38265;DHT22;24062;47.480;8.768;2023-07-22T00:39:29;27.70;56.90
38265;DHT22;24062;47.480;8.768;2023-07-22T00:41:57;27.70;56.80
38265;DHT22;24062;47.480;8.768;2023-07-22T00:44:24;27.70;56.90
38265;DHT22;24062;47.480;8.768;2023-07-22T00:46:53;27.70;56.90
38265;DHT22;24062;47.480;8.768;2023-07-22T00:49:21;27.70;56.90
38265;DHT22;24062;47.480;8.768;2023-07-22T00:51:48;27.70;56.90
38265;DHT22;24062;47.480;8.768;2023-07-22T00:54:15;27.70;57.50
38265;DHT22;24062;47.480;8.768;2023-07-22T00:56:43;27.60;56.90
38265;DHT22;24062;47.480;8.768;2023-07-22T00:59:12;27.60;56.90
38265;DHT22;24062;47.480;8.768;2023-07-22T01:01:40;27.70;57.00
38265;DHT22;24062;47.480;8.768;2023-07-22T01:04:07;27.60;56.90
38265;DHT22;24062;47.480;8.768;2023-07-22T01:06:35;27.70;57.00
38265;DHT22;24062;47.480;8.768;2023-07-22T01:09:02;27.60;56.90
38265;DHT22;24062;47.480;8.768;2023-07-22T01:11:30;27.60;56.90
38265;DHT22;24062;47.480;8.768;2023-07-22T01:13:57;27.60;57.00
38265;DHT22;24062;47.480;8.768;2023-07-22T01:16:27;27.60;57.00
38265;DHT22;24062;47.480;8.768;2023-07-22T01:22:19;27.60;57.00
38265;DHT22;24062;47.480;8.768;2023-07-22T01:24:49;27.50;56.90
38265;DHT22;24062;47.480;8.768;2023-07-22T01:27:16;27.50;56.90
38265;DHT22;24062;47.480;8.768;2023-07-22T01:29:43;27.50;56.90
38265;DHT22;24062;47.480;8.768;2023-07-22T01:32:10;27.50;56.90
38265;DHT22;24062;47.480;8.768;2023-07-22T01:34:37;27.50;57.00
38265;DHT22;24062;47.480;8.768;2023-07-22T01:37:05;27.50;57.00
38265;DHT22;24062;47.480;8.768;2023-07-22T01:39:32;27.50;57.00
38265;DHT22;24062;47.480;8.768;2023-07-22T01:42:00;27.50;57.00
38265;DHT22;24062;47.480;8.768;2023-07-22T01:44:27;27.50;57.00
38265;DHT22;24062;47.480;8.768;2023-07-22T01:46:54;27.50;57.00
38265;DHT22;24062;47.480;8.768;2023-07-22T01:49:21;27.50;57.00
38265;DHT22;24062;47.480;8.768;2023-07-22T01:51:50;27.50;57.10
38265;DHT22;24062;47.480;8.768;2023-07-22T01:54:18;27.40;57.00
38265;DHT22;24062;47.480;8.768;2023-07-22T01:56:45;27.40;57.00
38265;DHT22;24062;47.480;8.768;2023-07-22T01:59:13;27.40;57.00
38265;DHT22;24062;47.480;8.768;2023-07-22T02:01:40;27.40;57.00
38265;DHT22;24062;47.480;8.768;2023-07-22T02:04:07;27.40;57.10
38265;DHT22;24062;47.480;8.768;2023-07-22T02:06:36;27.40;57.10
38265;DHT22;24062;47.480;8.768;2023-07-22T02:09:03;27.40;57.10
38265;DHT22;24062;47.480;8.768;2023-07-22T02:11:34;27.40;57.10
38265;DHT22;24062;47.480;8.768;2023-07-22T02:14:01;27.30;57.00
38265;DHT22;24062;47.480;8.768;2023-07-22T02:16:33;27.30;57.10
38265;DHT22;24062;47.480;8.768;2023-07-22T02:19:00;27.30;57.10
38265;DHT22;24062;47.480;8.768;2023-07-22T02:21:27;27.30;57.10
38265;DHT22;24062;47.480;8.768;2023-07-22T02:23:54;27.30;57.10
38265;DHT22;24062;47.480;8.768;2023-07-22T02:26:21;27.30;57.20
38265;DHT22;24062;47.480;8.768;2023-07-22T02:28:49;27.30;57.20
38265;DHT22;24062;47.480;8.768;2023-07-22T02:31:16;27.20;57.10
38265;DHT22;24062;47.480;8.768;2023-07-22T02:33:44;27.30;57.20
38265;DHT22;24062;47.480;8.768;2023-07-22T02:36:12;27.30;57.20
38265;DHT22;24062;47.480;8.768;2023-07-22T02:38:39;27.30;57.20
38265;DHT22;24062;47.480;8.768;2023-07-22T02:41:06;27.30;57.20
38265;DHT22;24062;47.480;8.768;2023-07-22T02:43:33;27.20;57.20
38265;DHT22;24062;47.480;8.768;2023-07-22T02:46:01;27.20;57.20
38265;DHT22;24062;47.480;8.768;2023-07-22T02:48:29;27.20;57.20
38265;DHT22;24062;47.480;8.768;2023-07-22T02:51:04;27.20;57.30
38265;DHT22;24062;47.480;8.768;2023-07-22T02:53:31;27.20;57.30
38265;DHT22;24062;47.480;8.768;2023-07-22T02:55:58;27.20;57.30
38265;DHT22;24062;47.480;8.768;2023-07-22T02:58:25;27.20;57.30
38265;DHT22;24062;47.480;8.768;2023-07-22T03:00:52;27.10;57.20
38265;DHT22;24062;47.480;8.768;2023-07-22T03:03:19;27.10;57.30
38265;DHT22;24062;47.480;8.768;2023-07-22T03:05:46;27.10;57.30
38265;DHT22;24062;47.480;8.768;2023-07-22T03:08:16;27.10;57.30
38265;DHT22;24062;47.480;8.768;2023-07-22T03:10:43;27.10;57.30
38265;DHT22;24062;47.480;8.768;2023-07-22T03:13:14;27.10;57.30
38265;DHT22;24062;47.480;8.768;2023-07-22T03:15:41;27.10;57.30
38265;DHT22;24062;47.480;8.768;2023-07-22T03:18:08;27.00;57.30
38265;DHT22;24062;47.480;8.768;2023-07-22T03:20:36;27.00;57.30
38265;DHT22;24062;47.480;8.768;2023-07-22T03:23:03;27.00;57.40
38265;DHT22;24062;47.480;8.768;2023-07-22T03:25:32;27.00;57.40
38265;DHT22;24062;47.480;8.768;2023-07-22T03:28:00;27.00;57.40
38265;DHT22;24062;47.480;8.768;2023-07-22T03:30:28;27.00;57.40
38265;DHT22;24062;47.480;8.768;2023-07-22T03:32:56;27.00;57.40
38265;DHT22;24062;47.480;8.768;2023-07-22T03:35:23;27.00;57.40
38265;DHT22;24062;47.480;8.768;2023-07-22T03:37:50;27.00;57.50
38265;DHT22;24062;47.480;8.768;2023-07-22T03:40:17;27.00;57.50
38265;DHT22;24062;47.480;8.768;2023-07-22T03:42:47;27.00;57.50
38265;DHT22;24062;47.480;8.768;2023-07-22T03:45:14;26.90;57.40
38265;DHT22;24062;47.480;8.768;2023-07-22T03:47:41;27.00;57.50
38265;DHT22;24062;47.480;8.768;2023-07-22T03:50:08;27.00;57.50
38265;DHT22;24062;47.480;8.768;2023-07-22T03:52:35;26.90;57.50
38265;DHT22;24062;47.480;8.768;2023-07-22T03:55:03;27.00;57.50
38265;DHT22;24062;47.480;8.768;2023-07-22T03:57:31;26.90;57.40
38265;DHT22;24062;47.480;8.768;2023-07-22T03:59:59;26.90;57.50
38265;DHT22;24062;47.480;8.768;2023-07-22T04:02:26;26.90;57.50
38265;DHT22;24062;47.480;8.768;2023-07-22T04:04:54;26.90;57.50
38265;DHT22;24062;47.480;8.768;2023-07-22T04:07:22;26.90;57.50
38265;DHT22;24062;47.480;8.768;2023-07-22T04:09:49;26.90;57.50
38265;DHT22;24062;47.480;8.768;2023-07-22T04:12:16;26.90;57.50
38265;DHT22;24062;47.480;8.768;2023-07-22T04:14:43;26.90;57.50
38265;DHT22;24062;47.480;8.768;2023-07-22T04:17:11;26.80;57.50
38265;DHT22;24062;47.480;8.768;2023-07-22T04:19:40;26.90;57.50
38265;DHT22;24062;47.480;8.768;2023-07-22T04:22:07;26.90;57.50
38265;DHT22;24062;47.480;8.768;2023-07-22T04:24:35;26.80;57.40
38265;DHT22;24062;47.480;8.768;2023-07-22T04:27:03;26.90;57.50
38265;DHT22;24062;47.480;8.768;2023-07-22T04:29:30;26.80;57.40
38265;DHT22;24062;47.480;8.768;2023-07-22T04:31:57;26.90;57.50
38265;DHT22;24062;47.480;8.768;2023-07-22T04:34:28;26.80;57.50
38265;DHT22;24062;47.480;8.768;2023-07-22T04:36:55;26.80;57.50
38265;DHT22;24062;47.480;8.768;2023-07-22T04:39:23;26.80;57.50
38265;DHT22;24062;47.480;8.768;2023-07-22T04:41:50;26.80;57.40
38265;DHT22;24062;47.480;8.768;2023-07-22T04:44:17;26.80;57.40
38265;DHT22;24062;47.480;8.768;2023-07-22T04:46:44;26.80;57.40
38265;DHT22;24062;47.480;8.768;2023-07-22T04:49:11;26.80;57.50
38265;DHT22;24062;47.480;8.768;2023-07-22T04:51:39;26.80;57.50
38265;DHT22;24062;47.480;8.768;2023-07-22T04:54:06;26.80;57.50
38265;DHT22;24062;47.480;8.768;2023-07-22T04:56:33;26.80;57.50
38265;DHT22;24062;47.480;8.768;2023-07-22T04:59:00;26.80;57.50
38265;DHT22;24062;47.480;8.768;2023-07-22T05:01:28;26.80;57.50
38265;DHT22;24062;47.480;8.768;2023-07-22T05:03:55;26.80;57.50
38265;DHT22;24062;47.480;8.768;2023-07-22T05:06:23;26.80;57.50
38265;DHT22;24062;47.480;8.768;2023-07-22T05:08:52;26.80;57.40
38265;DHT22;24062;47.480;8.768;2023-07-22T05:11:18;26.80;57.40
38265;DHT22;24062;47.480;8.768;2023-07-22T05:13:45;26.80;57.50
38265;DHT22;24062;47.480;8.768;2023-07-22T05:16:12;26.80;57.40
38265;DHT22;24062;47.480;8.768;2023-07-22T05:18:39;26.80;57.30
38265;DHT22;24062;47.480;8.768;2023-07-22T05:21:06;26.80;57.30
38265;DHT22;24062;47.480;8.768;2023-07-22T05:23:33;26.80;57.30
38265;DHT22;24062;47.480;8.768;2023-07-22T05:26:02;26.80;57.30
38265;DHT22;24062;47.480;8.768;2023-07-22T05:28:29;26.80;57.30
38265;DHT22;24062;47.480;8.768;2023-07-22T05:30:56;26.80;57.30
38265;DHT22;24062;47.480;8.768;2023-07-22T05:33:23;26.80;57.40
38265;DHT22;24062;47.480;8.768;2023-07-22T05:35:50;26.80;57.40
38265;DHT22;24062;47.480;8.768;2023-07-22T05:38:17;26.80;57.30
38265;DHT22;24062;47.480;8.768;2023-07-22T05:40:44;26.80;57.30
38265;DHT22;24062;47.480;8.768;2023-07-22T05:43:12;26.80;57.20
38265;DHT22;24062;47.480;8.768;2023-07-22T05:45:39;26.80;57.30
38265;DHT22;24062;47.480;8.768;2023-07-22T05:48:06;26.80;57.30
38265;DHT22;24062;47.480;8.768;2023-07-22T05:50:33;26.80;57.20
38265;DHT22;24062;47.480;8.768;2023-07-22T05:53:00;26.80;57.20
38265;DHT22;24062;47.480;8.768;2023-07-22T05:55:27;26.80;57.10
38265;DHT22;24062;47.480;8.768;2023-07-22T05:57:54;26.90;57.20
38265;DHT22;24062;47.480;8.768;2023-07-22T06:00:22;26.90;57.20
38265;DHT22;24062;47.480;8.768;2023-07-22T06:02:49;26.80;57.10
38265;DHT22;24062;47.480;8.768;2023-07-22T06:05:16;26.90;57.10
38265;DHT22;24062;47.480;8.768;2023-07-22T06:07:43;27.00;57.00
38265;DHT22;24062;47.480;8.768;2023-07-22T06:10:10;27.10;56.80
38265;DHT22;24062;47.480;8.768;2023-07-22T06:12:37;27.30;56.40
38265;DHT22;24062;47.480;8.768;2023-07-22T06:15:07;27.60;55.90
38265;DHT22;24062;47.480;8.768;2023-07-22T06:17:35;27.80;55.60
38265;DHT22;24062;47.480;8.768;2023-07-22T06:20:02;27.90;55.30
38265;DHT22;24062;47.480;8.768;2023-07-22T06:22:30;28.00;55.20
38265;DHT22;24062;47.480;8.768;2023-07-22T06:24:56;28.00;55.00
38265;DHT22;24062;47.480;8.768;2023-07-22T06:27:23;28.10;54.90
38265;DHT22;24062;47.480;8.768;2023-07-22T06:29:50;28.10;55.00
38265;DHT22;24062;47.480;8.768;2023-07-22T06:32:17;28.00;55.20
38265;DHT22;24062;47.480;8.768;2023-07-22T06:34:45;28.00;55.30
38265;DHT22;24062;47.480;8.768;2023-07-22T06:37:12;27.90;55.30
38265;DHT22;24062;47.480;8.768;2023-07-22T06:39:39;27.90;55.40
38265;DHT22;24062;47.480;8.768;2023-07-22T06:42:06;27.90;55.50
38265;DHT22;24062;47.480;8.768;2023-07-22T06:44:33;28.00;55.50
38265;DHT22;24062;47.480;8.768;2023-07-22T06:47:00;28.00;55.50
38265;DHT22;24062;47.480;8.768;2023-07-22T06:49:27;28.00;55.50
38265;DHT22;24062;47.480;8.768;2023-07-22T06:51:55;28.00;55.40
38265;DHT22;24062;47.480;8.768;2023-07-22T06:54:22;28.10;55.40
38265;DHT22;24062;47.480;8.768;2023-07-22T06:56:49;28.20;55.30
38265;DHT22;24062;47.480;8.768;2023-07-22T06:59:16;28.20;55.20
38265;DHT22;24062;47.480;8.768;2023-07-22T07:01:43;28.30;55.10
38265;DHT22;24062;47.480;8.768;2023-07-22T07:04:10;28.30;55.00
38265;DHT22;24062;47.480;8.768;2023-07-22T07:06:37;28.30;54.90
38265;DHT22;24062;47.480;8.768;2023-07-22T07:09:05;28.40;54.80
38265;DHT22;24062;47.480;8.768;2023-07-22T07:11:32;28.40;54.80
38265;DHT22;24062;47.480;8.768;2023-07-22T07:13:59;28.40;54.70
38265;DHT22;24062;47.480;8.768;2023-07-22T07:16:27;28.50;54.70
38265;DHT22;24062;47.480;8.768;2023-07-22T07:18:55;28.50;54.70
38265;DHT22;24062;47.480;8.768;2023-07-22T07:21:22;28.60;54.60
38265;DHT22;24062;47.480;8.768;2023-07-22T07:23:49;28.60;54.50
38265;DHT22;24062;47.480;8.768;2023-07-22T07:26:18;28.70;54.50
38265;DHT22;24062;47.480;8.768;2023-07-22T07:28:45;28.70;54.40
38265;DHT22;24062;47.480;8.768;2023-07-22T07:31:12;28.60;54.40
38265;DHT22;24062;47.480;8.768;2023-07-22T07:33:39;28.50;54.40
38265;DHT22;24062;47.480;8.768;2023-07-22T07:36:06;28.50;54.50
38265;DHT22;24062;47.480;8.768;2023-07-22T07:38:33;28.40;54.50
38265;DHT22;24062;47.480;8.768;2023-07-22T07:41:01;28.40;54.50
38265;DHT22;24062;47.480;8.768;2023-07-22T07:43:30;28.40;54.60
38265;DHT22;24062;47.480;8.768;2023-07-22T07:46:13;28.50;54.60
38265;DHT22;24062;47.480;8.768;2023-07-22T07:48:43;28.60;54.50
38265;DHT22;24062;47.480;8.768;2023-07-22T07:51:10;28.70;54.40
38265;DHT22;24062;47.480;8.768;2023-07-22T07:53:37;28.80;54.30
38265;DHT22;24062;47.480;8.768;2023-07-22T07:56:04;28.90;54.20
38265;DHT22;24062;47.480;8.768;2023-07-22T07:58:33;29.00;54.10
38265;DHT22;24062;47.480;8.768;2023-07-22T08:01:00;29.10;54.00
38265;DHT22;24062;47.480;8.768;2023-07-22T08:03:27;29.10;53.90
38265;DHT22;24062;47.480;8.768;2023-07-22T08:05:54;29.10;53.80
38265;DHT22;24062;47.480;8.768;2023-07-22T08:08:21;29.10;53.80
38265;DHT22;24062;47.480;8.768;2023-07-22T08:10:57;29.20;53.80
38265;DHT22;24062;47.480;8.768;2023-07-22T08:13:25;29.20;53.80
38265;DHT22;24062;47.480;8.768;2023-07-22T08:15:53;29.30;53.70
38265;DHT22;24062;47.480;8.768;2023-07-22T08:18:20;29.30;53.70
38265;DHT22;24062;47.480;8.768;2023-07-22T08:20:47;29.40;53.60
38265;DHT22;24062;47.480;8.768;2023-07-22T08:23:14;29.40;53.60
38265;DHT22;24062;47.480;8.768;2023-07-22T08:25:41;29.40;53.50
38265;DHT22;24062;47.480;8.768;2023-07-22T08:28:08;29.50;53.50
38265;DHT22;24062;47.480;8.768;2023-07-22T08:30:35;29.50;53.50
38265;DHT22;24062;47.480;8.768;2023-07-22T08:33:04;29.60;53.40
38265;DHT22;24062;47.480;8.768;2023-07-22T08:35:31;29.60;53.40
38265;DHT22;24062;47.480;8.768;2023-07-22T08:37:57;29.70;53.40
38265;DHT22;24062;47.480;8.768;2023-07-22T08:40:24;29.70;53.20
38265;DHT22;24062;47.480;8.768;2023-07-22T08:42:52;29.70;53.20
38265;DHT22;24062;47.480;8.768;2023-07-22T08:45:20;29.80;53.30
38265;DHT22;24062;47.480;8.768;2023-07-22T08:47:49;29.80;53.10
38265;DHT22;24062;47.480;8.768;2023-07-22T08:50:20;29.80;53.10
38265;DHT22;24062;47.480;8.768;2023-07-22T08:52:49;29.90;53.10
38265;DHT22;24062;47.480;8.768;2023-07-22T08:55:17;29.90;53.00
38265;DHT22;24062;47.480;8.768;2023-07-22T08:57:45;29.90;53.10
38265;DHT22;24062;47.480;8.768;2023-07-22T09:00:14;29.90;53.00
38265;DHT22;24062;47.480;8.768;2023-07-22T09:02:41;29.90;53.10
38265;DHT22;24062;47.480;8.768;2023-07-22T09:05:09;29.90;53.10
38265;DHT22;24062;47.480;8.768;2023-07-22T09:07:37;29.80;53.10
38265;DHT22;24062;47.480;8.768;2023-07-22T09:10:06;29.70;53.20
38265;DHT22;24062;47.480;8.768;2023-07-22T09:12:35;29.80;53.30
38265;DHT22;24062;47.480;8.768;2023-07-22T09:15:07;29.80;53.30
38265;DHT22;24062;47.480;8.768;2023-07-22T09:17:36;29.90;53.20
38265;DHT22;24062;47.480;8.768;2023-07-22T09:20:04;30.00;53.20
38265;DHT22;24062;47.480;8.768;2023-07-22T09:22:32;30.10;53.10
38265;DHT22;24062;47.480;8.768;2023-07-22T09:25:14;30.10;53.00
38265;DHT22;24062;47.480;8.768;2023-07-22T09:27:41;30.10;52.90
38265;DHT22;24062;47.480;8.768;2023-07-22T09:30:21;30.20;52.90
38265;DHT22;24062;47.480;8.768;2023-07-22T09:32:48;30.20;52.90
38265;DHT22;24062;47.480;8.768;2023-07-22T09:35:15;30.10;52.80
38265;DHT22;24062;47.480;8.768;2023-07-22T09:37:42;30.00;53.00
38265;DHT22;24062;47.480;8.768;2023-07-22T09:40:18;29.90;53.10
38265;DHT22;24062;47.480;8.768;2023-07-22T09:42:46;29.80;53.20
38265;DHT22;24062;47.480;8.768;2023-07-22T09:45:14;29.80;53.30
38265;DHT22;24062;47.480;8.768;2023-07-22T09:47:42;29.80;53.30
38265;DHT22;24062;47.480;8.768;2023-07-22T09:50:13;29.80;53.30
38265;DHT22;24062;47.480;8.768;2023-07-22T09:52:43;29.80;53.30
38265;DHT22;24062;47.480;8.768;2023-07-22T09:55:10;29.70;53.40
38265;DHT22;24062;47.480;8.768;2023-07-22T09:57:43;29.70;53.50
38265;DHT22;24062;47.480;8.768;2023-07-22T10:00:11;29.60;53.60
38265;DHT22;24062;47.480;8.768;2023-07-22T10:02:40;29.50;53.60
38265;DHT22;24062;47.480;8.768;2023-07-22T10:05:13;29.50;53.80
38265;DHT22;24062;47.480;8.768;2023-07-22T10:07:47;29.50;53.90
38265;DHT22;24062;47.480;8.768;2023-07-22T10:10:16;29.40;53.90
38265;DHT22;24062;47.480;8.768;2023-07-22T10:12:45;29.50;54.00
38265;DHT22;24062;47.480;8.768;2023-07-22T10:15:14;29.50;53.80
38265;DHT22;24062;47.480;8.768;2023-07-22T10:17:41;29.60;53.70
38265;DHT22;24062;47.480;8.768;2023-07-22T10:20:10;29.70;53.60
38265;DHT22;24062;47.480;8.768;2023-07-22T10:22:42;29.70;53.50
38265;DHT22;24062;47.480;8.768;2023-07-22T10:25:11;29.70;53.50
38265;DHT22;24062;47.480;8.768;2023-07-22T10:27:38;29.80;53.50
38265;DHT22;24062;47.480;8.768;2023-07-22T10:30:09;29.80;53.40
38265;DHT22;24062;47.480;8.768;2023-07-22T10:32:38;29.90;53.50
38265;DHT22;24062;47.480;8.768;2023-07-22T10:35:08;29.90;53.40
38265;DHT22;24062;47.480;8.768;2023-07-22T10:37:36;29.90;53.40
38265;DHT22;24062;47.480;8.768;2023-07-22T10:40:19;30.00;53.40
38265;DHT22;24062;47.480;8.768;2023-07-22T10:42:53;30.00;53.40
38265;DHT22;24062;47.480;8.768;2023-07-22T10:45:29;30.00;53.40
38265;DHT22;24062;47.480;8.768;2023-07-22T10:48:02;30.00;53.30
38265;DHT22;24062;47.480;8.768;2023-07-22T10:50:43;30.00;53.30
38265;DHT22;24062;47.480;8.768;2023-07-22T10:53:13;30.00;53.20
38265;DHT22;24062;47.480;8.768;2023-07-22T10:56:02;30.10;53.30
38265;DHT22;24062;47.480;8.768;2023-07-22T10:58:30;30.10;53.20
38265;DHT22;24062;47.480;8.768;2023-07-22T11:01:22;30.20;53.30
38265;DHT22;24062;47.480;8.768;2023-07-22T11:04:13;30.10;53.10
38265;DHT22;24062;47.480;8.768;2023-07-22T11:06:53;30.20;53.20
38265;DHT22;24062;47.480;8.768;2023-07-22T11:09:38;30.20;53.20
38265;DHT22;24062;47.480;8.768;2023-07-22T11:12:09;30.20;53.10
38265;DHT22;24062;47.480;8.768;2023-07-22T11:14:48;30.20;53.10
38265;DHT22;24062;47.480;8.768;2023-07-22T11:17:17;30.20;53.00
38265;DHT22;24062;47.480;8.768;2023-07-22T11:19:45;30.20;53.20
38265;DHT22;24062;47.480;8.768;2023-07-22T11:22:12;30.20;53.10
38265;DHT22;24062;47.480;8.768;2023-07-22T11:24:40;30.20;53.20
38265;DHT22;24062;47.480;8.768;2023-07-22T11:27:08;30.20;53.10
38265;DHT22;24062;47.480;8.768;2023-07-22T11:29:35;30.20;53.10
38265;DHT22;24062;47.480;8.768;2023-07-22T11:32:03;30.20;53.20
38265;DHT22;24062;47.480;8.768;2023-07-22T11:34:32;30.20;53.30
38265;DHT22;24062;47.480;8.768;2023-07-22T11:36:59;30.10;53.30
38265;DHT22;24062;47.480;8.768;2023-07-22T11:39:27;30.20;53.30
38265;DHT22;24062;47.480;8.768;2023-07-22T11:41:58;30.10;53.30
38265;DHT22;24062;47.480;8.768;2023-07-22T11:44:27;30.10;53.40
38265;DHT22;24062;47.480;8.768;2023-07-22T11:46:57;30.10;53.40
38265;DHT22;24062;47.480;8.768;2023-07-22T11:49:29;30.20;53.40
38265;DHT22;24062;47.480;8.768;2023-07-22T11:51:59;30.30;53.30
38265;DHT22;24062;47.480;8.768;2023-07-22T11:54:26;30.30;53.20
38265;DHT22;24062;47.480;8.768;2023-07-22T11:56:54;30.40;53.10
38265;DHT22;24062;47.480;8.768;2023-07-22T11:59:35;30.40;52.90
38265;DHT22;24062;47.480;8.768;2023-07-22T12:02:02;30.50;53.00
38265;DHT22;24062;47.480;8.768;2023-07-22T12:04:31;30.50;53.00
38265;DHT22;24062;47.480;8.768;2023-07-22T12:07:00;30.50;52.90
38265;DHT22;24062;47.480;8.768;2023-07-22T12:09:27;30.50;53.60
38265;DHT22;24062;47.480;8.768;2023-07-22T12:11:57;30.50;53.00
38265;DHT22;24062;47.480;8.768;2023-07-22T12:14:31;30.50;53.10
38265;DHT22;24062;47.480;8.768;2023-07-22T12:16:58;30.50;53.10
38265;DHT22;24062;47.480;8.768;2023-07-22T12:19:27;30.40;53.00
38265;DHT22;24062;47.480;8.768;2023-07-22T12:21:54;30.40;53.10
38265;DHT22;24062;47.480;8.768;2023-07-22T12:24:22;30.50;53.10
38265;DHT22;24062;47.480;8.768;2023-07-22T12:26:49;30.50;53.00
38265;DHT22;24062;47.480;8.768;2023-07-22T12:29:16;30.50;53.00
38265;DHT22;24062;47.480;8.768;2023-07-22T12:31:43;30.50;53.00
38265;DHT22;24062;47.480;8.768;2023-07-22T12:34:10;30.50;53.00
38265;DHT22;24062;47.480;8.768;2023-07-22T12:36:37;30.60;52.90
38265;DHT22;24062;47.480;8.768;2023-07-22T12:39:04;30.70;52.90
38265;DHT22;24062;47.480;8.768;2023-07-22T12:41:32;30.70;52.90
38265;DHT22;24062;47.480;8.768;2023-07-22T12:43:59;30.70;52.80
38265;DHT22;24062;47.480;8.768;2023-07-22T12:46:26;30.70;52.80
38265;DHT22;24062;47.480;8.768;2023-07-22T12:48:53;30.70;52.80
38265;DHT22;24062;47.480;8.768;2023-07-22T12:51:20;30.80;52.80
38265;DHT22;24062;47.480;8.768;2023-07-22T12:53:47;30.80;52.80
38265;DHT22;24062;47.480;8.768;2023-07-22T12:56:14;30.80;52.70
38265;DHT22;24062;47.480;8.768;2023-07-22T12:58:42;30.90;52.80
38265;DHT22;24062;47.480;8.768;2023-07-22T13:01:09;30.90;52.70
38265;DHT22;24062;47.480;8.768;2023-07-22T13:03:36;30.90;52.70
38265;DHT22;24062;47.480;8.768;2023-07-22T13:06:03;30.90;52.70
38265;DHT22;24062;47.480;8.768;2023-07-22T13:08:30;30.90;52.70
38265;DHT22;24062;47.480;8.768;2023-07-22T13:10:57;30.80;52.80
38265;DHT22;24062;47.480;8.768;2023-07-22T13:13:24;30.80;52.70
38265;DHT22;24062;47.480;8.768;2023-07-22T13:15:52;30.90;52.80
38265;DHT22;24062;47.480;8.768;2023-07-22T13:18:19;30.80;52.80
38265;DHT22;24062;47.480;8.768;2023-07-22T13:20:46;30.80;52.80
38265;DHT22;24062;47.480;8.768;2023-07-22T13:23:13;30.80;52.80
38265;DHT22;24062;47.480;8.768;2023-07-22T13:25:40;30.90;52.80
38265;DHT22;24062;47.480;8.768;2023-07-22T13:28:06;30.90;52.90
38265;DHT22;24062;47.480;8.768;2023-07-22T13:30:33;30.90;52.90
38265;DHT22;24062;47.480;8.768;2023-07-22T13:33:02;30.90;52.90
38265;DHT22;24062;47.480;8.768;2023-07-22T13:35:29;31.00;52.90
38265;DHT22;24062;47.480;8.768;2023-07-22T13:37:56;31.00;52.80
38265;DHT22;24062;47.480;8.768;2023-07-22T13:40:23;31.00;52.80
38265;DHT22;24062;47.480;8.768;2023-07-22T13:42:49;31.00;52.80
38265;DHT22;24062;47.480;8.768;2023-07-22T13:45:16;31.00;52.80
38265;DHT22;24062;47.480;8.768;2023-07-22T13:47:43;31.00;52.80
38265;DHT22;24062;47.480;8.768;2023-07-22T13:50:11;31.00;52.80
38265;DHT22;24062;47.480;8.768;2023-07-22T13:52:38;31.00;52.70
38265;DHT22;24062;47.480;8.768;2023-07-22T13:55:07;31.00;52.80
38265;DHT22;24062;47.480;8.768;2023-07-22T13:57:34;31.00;52.80
38265;DHT22;24062;47.480;8.768;2023-07-22T14:00:01;31.00;52.80
38265;DHT22;24062;47.480;8.768;2023-07-22T14:02:32;31.00;52.80
38265;DHT22;24062;47.480;8.768;2023-07-22T14:04:59;31.10;52.90
38265;DHT22;24062;47.480;8.768;2023-07-22T14:07:27;31.10;52.80
38265;DHT22;24062;47.480;8.768;2023-07-22T14:09:54;31.10;52.90
38265;DHT22;24062;47.480;8.768;2023-07-22T14:12:21;31.10;52.80
38265;DHT22;24062;47.480;8.768;2023-07-22T14:14:48;31.10;52.80
38265;DHT22;24062;47.480;8.768;2023-07-22T14:17:15;31.10;52.90
38265;DHT22;24062;47.480;8.768;2023-07-22T14:19:42;31.10;52.90
38265;DHT22;24062;47.480;8.768;2023-07-22T14:22:09;31.10;52.90
38265;DHT22;24062;47.480;8.768;2023-07-22T14:24:37;31.10;52.80
38265;DHT22;24062;47.480;8.768;2023-07-22T14:27:05;31.20;52.80
38265;DHT22;24062;47.480;8.768;2023-07-22T14:29:32;31.30;52.80
38265;DHT22;24062;47.480;8.768;2023-07-22T14:31:59;31.30;52.70
38265;DHT22;24062;47.480;8.768;2023-07-22T14:34:25;31.40;52.70
38265;DHT22;24062;47.480;8.768;2023-07-22T14:36:52;31.40;52.70
38265;DHT22;24062;47.480;8.768;2023-07-22T14:39:19;31.40;52.60
38265;DHT22;24062;47.480;8.768;2023-07-22T14:41:48;31.50;52.50
38265;DHT22;24062;47.480;8.768;2023-07-22T14:44:15;31.50;52.50
38265;DHT22;24062;47.480;8.768;2023-07-22T14:46:42;31.50;52.40
38265;DHT22;24062;47.480;8.768;2023-07-22T14:49:09;31.60;52.40
38265;DHT22;24062;47.480;8.768;2023-07-22T14:51:36;31.60;52.30
38265;DHT22;24062;47.480;8.768;2023-07-22T14:54:03;31.70;52.30
38265;DHT22;24062;47.480;8.768;2023-07-22T14:56:30;31.70;52.20
38265;DHT22;24062;47.480;8.768;2023-07-22T14:58:58;31.80;52.20
38265;DHT22;24062;47.480;8.768;2023-07-22T15:01:25;31.90;52.10
38265;DHT22;24062;47.480;8.768;2023-07-22T15:03:52;31.90;52.00
38265;DHT22;24062;47.480;8.768;2023-07-22T15:06:21;32.00;52.00
38265;DHT22;24062;47.480;8.768;2023-07-22T15:08:48;32.00;51.90
38265;DHT22;24062;47.480;8.768;2023-07-22T15:11:14;32.10;51.80
38265;DHT22;24062;47.480;8.768;2023-07-22T15:13:41;32.10;51.80
38265;DHT22;24062;47.480;8.768;2023-07-22T15:16:10;32.20;51.80
38265;DHT22;24062;47.480;8.768;2023-07-22T15:18:37;32.20;51.70
38265;DHT22;24062;47.480;8.768;2023-07-22T15:21:03;32.20;51.60
38265;DHT22;24062;47.480;8.768;2023-07-22T15:23:30;32.40;51.60
38265;DHT22;24062;47.480;8.768;2023-07-22T15:25:57;32.40;51.50
38265;DHT22;24062;47.480;8.768;2023-07-22T15:28:25;32.40;51.50
38265;DHT22;24062;47.480;8.768;2023-07-22T15:30:53;32.50;51.50
38265;DHT22;24062;47.480;8.768;2023-07-22T15:33:21;32.50;51.40
38265;DHT22;24062;47.480;8.768;2023-07-22T15:35:48;32.50;51.30
38265;DHT22;24062;47.480;8.768;2023-07-22T15:38:15;32.60;51.30